sensor_id;sensor_type;location;lat;lon;timestamp;temperature;humidity
20946;DHT22;10632;51.276;7.116;2022-08-25T00:02:07;23.30;91.00
20946;DHT22;10632;51.276;7.116;2022-08-25T00:04:35;23.30;91.20
20946;DHT22;10632;51.276;7.116;2022-08-25T00:07:03;23.30;91.30
20946;DHT22;10632;51.276;7.116;2022-08-25T00:09:31;23.20;91.30
20946;DHT22;10632;51.276;7.116;2022-08-25T00:11:59;23.20;91.40
20946;DHT22;10632;51.276;7.116;2022-08-25T00:14:30;23.10;91.50
20946;DHT22;10632;51.276;7.116;2022-08-25T00:16:58;23.10;91.80
20946;DHT22;10632;51.276;7.116;2022-08-25T00:19:27;23.00;91.90
20946;DHT22;10632;51.276;7.116;2022-08-25T00:21:56;23.00;92.10
20946;DHT22;10632;51.276;7.116;2022-08-25T00:24:25;23.00;92.10
20946;DHT22;10632;51.276;7.116;2022-08-25T00:26:56;23.00;92.10
20946;DHT22;10632;51.276;7.116;2022-08-25T00:29:24;22.90;91.90
20946;DHT22;10632;51.276;7.116;2022-08-25T00:31:54;22.90;91.90
20946;DHT22;10632;51.276;7.116;2022-08-25T00:34:27;22.90;91.90
20946;DHT22;10632;51.276;7.116;2022-08-25T00:36:56;22.90;92.00
20946;DHT22;10632;51.276;7.116;2022-08-25T00:39:27;22.90;92.30
20946;DHT22;10632;51.276;7.116;2022-08-25T00:41:56;22.80;92.50
20946;DHT22;10632;51.276;7.116;2022-08-25T00:44:25;22.80;92.70
20946;DHT22;10632;51.276;7.116;2022-08-25T00:46:55;22.70;92.70
20946;DHT22;10632;51.276;7.116;2022-08-25T00:49:25;22.70;92.90
20946;DHT22;10632;51.276;7.116;2022-08-25T00:51:59;22.60;93.00
20946;DHT22;10632;51.276;7.116;2022-08-25T00:54:30;22.60;93.20
20946;DHT22;10632;51.276;7.116;2022-08-25T00:57:00;22.50;93.10
20946;DHT22;10632;51.276;7.116;2022-08-25T00:59:32;22.50;93.20
20946;DHT22;10632;51.276;7.116;2022-08-25T01:02:03;22.40;93.30
20946;DHT22;10632;51.276;7.116;2022-08-25T01:04:32;22.40;93.20
20946;DHT22;10632;51.276;7.116;2022-08-25T01:07:00;22.30;93.30
20946;DHT22;10632;51.276;7.116;2022-08-25T01:09:31;22.30;93.30
20946;DHT22;10632;51.276;7.116;2022-08-25T01:12:01;22.20;93.40
20946;DHT22;10632;51.276;7.116;2022-08-25T01:14:30;22.20;93.50
20946;DHT22;10632;51.276;7.116;2022-08-25T01:16:58;22.20;93.60
20946;DHT22;10632;51.276;7.116;2022-08-25T01:19:30;22.10;93.70
20946;DHT22;10632;51.276;7.116;2022-08-25T01:21:59;22.10;93.80
20946;DHT22;10632;51.276;7.116;2022-08-25T01:24:32;22.10;93.90
20946;DHT22;10632;51.276;7.116;2022-08-25T01:27:03;22.00;93.90
20946;DHT22;10632;51.276;7.116;2022-08-25T01:29:31;22.00;94.00
20946;DHT22;10632;51.276;7.116;2022-08-25T01:32:00;21.90;94.10
20946;DHT22;10632;51.276;7.116;2022-08-25T01:34:29;21.90;94.10
20946;DHT22;10632;51.276;7.116;2022-08-25T01:37:00;21.90;94.10
20946;DHT22;10632;51.276;7.116;2022-08-25T01:39:30;21.90;94.30
20946;DHT22;10632;51.276;7.116;2022-08-25T01:42:23;21.80;94.30
20946;DHT22;10632;51.276;7.116;2022-08-25T01:44:53;21.80;94.40
20946;DHT22;10632;51.276;7.116;2022-08-25T01:47:23;21.80;94.60
20946;DHT22;10632;51.276;7.116;2022-08-25T01:49:51;21.70;94.70
20946;DHT22;10632;51.276;7.116;2022-08-25T01:52:24;21.70;94.90
20946;DHT22;10632;51.276;7.116;2022-08-25T01:54:51;21.60;94.90
20946;DHT22;10632;51.276;7.116;2022-08-25T01:57:18;21.60;94.90
20946;DHT22;10632;51.276;7.116;2022-08-25T01:59:46;21.60;94.90
20946;DHT22;10632;51.276;7.116;2022-08-25T02:02:13;21.60;95.00
20946;DHT22;10632;51.276;7.116;2022-08-25T02:04:40;21.60;95.00
20946;DHT22;10632;51.276;7.116;2022-08-25T02:07:08;21.60;95.00
20946;DHT22;10632;51.276;7.116;2022-08-25T02:09:37;21.60;95.10
20946;DHT22;10632;51.276;7.116;2022-08-25T02:12:05;21.50;95.10
20946;DHT22;10632;51.276;7.116;2022-08-25T02:14:34;21.50;95.20
20946;DHT22;10632;51.276;7.116;2022-08-25T02:17:04;21.50;95.30
20946;DHT22;10632;51.276;7.116;2022-08-25T02:19:31;21.50;95.40
20946;DHT22;10632;51.276;7.116;2022-08-25T02:21:59;21.50;95.50
20946;DHT22;10632;51.276;7.116;2022-08-25T02:24:27;21.40;95.50
20946;DHT22;10632;51.276;7.116;2022-08-25T02:26:55;21.40;95.60
20946;DHT22;10632;51.276;7.116;2022-08-25T02:29:23;21.40;95.70
20946;DHT22;10632;51.276;7.116;2022-08-25T02:31:50;21.30;95.80
20946;DHT22;10632;51.276;7.116;2022-08-25T02:34:20;21.30;95.80
20946;DHT22;10632;51.276;7.116;2022-08-25T02:36:49;21.30;95.90
20946;DHT22;10632;51.276;7.116;2022-08-25T02:39:16;21.30;96.20
20946;DHT22;10632;51.276;7.116;2022-08-25T02:41:43;21.30;96.20
20946;DHT22;10632;51.276;7.116;2022-08-25T02:44:14;21.30;96.30
20946;DHT22;10632;51.276;7.116;2022-08-25T02:46:41;21.20;96.40
20946;DHT22;10632;51.276;7.116;2022-08-25T02:49:08;21.20;96.80
20946;DHT22;10632;51.276;7.116;2022-08-25T02:51:35;21.20;96.70
20946;DHT22;10632;51.276;7.116;2022-08-25T02:54:04;21.20;96.90
20946;DHT22;10632;51.276;7.116;2022-08-25T02:56:33;21.10;97.00
20946;DHT22;10632;51.276;7.116;2022-08-25T02:59:00;21.10;97.10
20946;DHT22;10632;51.276;7.116;2022-08-25T03:01:30;21.10;97.20
20946;DHT22;10632;51.276;7.116;2022-08-25T03:03:58;21.10;97.30
20946;DHT22;10632;51.276;7.116;2022-08-25T03:06:28;21.10;97.50
20946;DHT22;10632;51.276;7.116;2022-08-25T03:08:56;21.10;97.70
20946;DHT22;10632;51.276;7.116;2022-08-25T03:11:23;21.10;97.80
20946;DHT22;10632;51.276;7.116;2022-08-25T03:13:53;21.00;98.00
20946;DHT22;10632;51.276;7.116;2022-08-25T03:16:24;21.00;98.10
20946;DHT22;10632;51.276;7.116;2022-08-25T03:18:52;21.00;98.20
20946;DHT22;10632;51.276;7.116;2022-08-25T03:21:19;21.00;98.50
20946;DHT22;10632;51.276;7.116;2022-08-25T03:23:46;21.00;98.60
20946;DHT22;10632;51.276;7.116;2022-08-25T03:26:13;21.00;98.50
20946;DHT22;10632;51.276;7.116;2022-08-25T03:28:54;21.00;98.60
20946;DHT22;10632;51.276;7.116;2022-08-25T03:31:21;21.00;98.70
20946;DHT22;10632;51.276;7.116;2022-08-25T03:33:53;21.00;98.60
20946;DHT22;10632;51.276;7.116;2022-08-25T03:36:20;20.90;98.70
20946;DHT22;10632;51.276;7.116;2022-08-25T03:38:47;21.00;98.80
20946;DHT22;10632;51.276;7.116;2022-08-25T03:41:15;21.00;98.80
20946;DHT22;10632;51.276;7.116;2022-08-25T03:43:43;21.00;98.90
20946;DHT22;10632;51.276;7.116;2022-08-25T03:46:16;21.00;99.00
20946;DHT22;10632;51.276;7.116;2022-08-25T03:48:43;21.00;99.40
20946;DHT22;10632;51.276;7.116;2022-08-25T03:51:17;21.00;99.20
20946;DHT22;10632;51.276;7.116;2022-08-25T03:53:44;21.00;99.20
20946;DHT22;10632;51.276;7.116;2022-08-25T03:56:11;21.00;99.30
20946;DHT22;10632;51.276;7.116;2022-08-25T03:58:41;21.00;99.40
20946;DHT22;10632;51.276;7.116;2022-08-25T04:01:08;21.00;99.50
20946;DHT22;10632;51.276;7.116;2022-08-25T04:03:35;21.00;99.60
20946;DHT22;10632;51.276;7.116;2022-08-25T04:06:04;21.00;99.70
20946;DHT22;10632;51.276;7.116;2022-08-25T04:08:33;21.00;99.80
20946;DHT22;10632;51.276;7.116;2022-08-25T04:11:05;20.90;99.80
20946;DHT22;10632;51.276;7.116;2022-08-25T04:13:35;20.90;99.90
20946;DHT22;10632;51.276;7.116;2022-08-25T04:16:02;20.80;99.90
20946;DHT22;10632;51.276;7.116;2022-08-25T04:18:29;20.90;99.90
20946;DHT22;10632;51.276;7.116;2022-08-25T04:21:03;20.80;99.90
20946;DHT22;10632;51.276;7.116;2022-08-25T04:23:30;20.90;99.90
20946;DHT22;10632;51.276;7.116;2022-08-25T04:25:59;20.80;99.90
20946;DHT22;10632;51.276;7.116;2022-08-25T04:28:28;20.80;99.90
20946;DHT22;10632;51.276;7.116;2022-08-25T04:30:55;20.80;99.90
20946;DHT22;10632;51.276;7.116;2022-08-25T04:33:22;20.80;99.90
20946;DHT22;10632;51.276;7.116;2022-08-25T04:35:49;20.80;99.90
20946;DHT22;10632;51.276;7.116;2022-08-25T04:38:19;20.80;99.90
20946;DHT22;10632;51.276;7.116;2022-08-25T04:40:54;20.80;99.90
20946;DHT22;10632;51.276;7.116;2022-08-25T04:43:23;20.70;99.90
20946;DHT22;10632;51.276;7.116;2022-08-25T04:45:50;20.70;99.90
20946;DHT22;10632;51.276;7.116;2022-08-25T04:48:18;20.70;99.90
20946;DHT22;10632;51.276;7.116;2022-08-25T04:50:45;20.70;99.90
20946;DHT22;10632;51.276;7.116;2022-08-25T04:53:12;20.70;99.90
20946;DHT22;10632;51.276;7.116;2022-08-25T04:55:42;20.60;99.90
20946;DHT22;10632;51.276;7.116;2022-08-25T04:58:10;20.60;99.90
20946;DHT22;10632;51.276;7.116;2022-08-25T05:00:39;20.60;99.90
20946;DHT22;10632;51.276;7.116;2022-08-25T05:03:07;20.70;99.90
20946;DHT22;10632;51.276;7.116;2022-08-25T05:05:35;20.70;99.90
20946;DHT22;10632;51.276;7.116;2022-08-25T05:08:03;20.70;99.90
20946;DHT22;10632;51.276;7.116;2022-08-25T05:10:30;20.70;99.90
20946;DHT22;10632;51.276;7.116;2022-08-25T05:13:00;20.80;99.90
20946;DHT22;10632;51.276;7.116;2022-08-25T05:15:27;20.80;99.90
20946;DHT22;10632;51.276;7.116;2022-08-25T05:18:15;20.80;99.90
20946;DHT22;10632;51.276;7.116;2022-08-25T05:20:44;20.90;99.90
20946;DHT22;10632;51.276;7.116;2022-08-25T05:23:12;21.00;99.90
20946;DHT22;10632;51.276;7.116;2022-08-25T05:25:40;21.10;99.90
20946;DHT22;10632;51.276;7.116;2022-08-25T05:28:07;21.20;99.90
20946;DHT22;10632;51.276;7.116;2022-08-25T05:30:37;21.20;99.90
20946;DHT22;10632;51.276;7.116;2022-08-25T05:33:05;21.20;99.90
20946;DHT22;10632;51.276;7.116;2022-08-25T05:35:35;21.30;99.90
20946;DHT22;10632;51.276;7.116;2022-08-25T05:38:03;21.30;99.90
20946;DHT22;10632;51.276;7.116;2022-08-25T05:40:30;21.30;99.90
20946;DHT22;10632;51.276;7.116;2022-08-25T05:42:58;21.30;99.90
20946;DHT22;10632;51.276;7.116;2022-08-25T05:45:25;21.30;99.90
20946;DHT22;10632;51.276;7.116;2022-08-25T05:47:52;21.40;99.90
20946;DHT22;10632;51.276;7.116;2022-08-25T05:50:22;21.50;99.90
20946;DHT22;10632;51.276;7.116;2022-08-25T05:52:50;21.50;99.90
20946;DHT22;10632;51.276;7.116;2022-08-25T05:55:17;21.50;99.90
20946;DHT22;10632;51.276;7.116;2022-08-25T05:57:47;21.60;99.90
20946;DHT22;10632;51.276;7.116;2022-08-25T06:00:16;21.60;99.90
20946;DHT22;10632;51.276;7.116;2022-08-25T06:02:44;21.60;99.90
20946;DHT22;10632;51.276;7.116;2022-08-25T06:05:14;21.70;99.90
20946;DHT22;10632;51.276;7.116;2022-08-25T06:07:43;21.70;99.90
20946;DHT22;10632;51.276;7.116;2022-08-25T06:10:12;21.80;99.90
20946;DHT22;10632;51.276;7.116;2022-08-25T06:12:42;21.80;99.90
20946;DHT22;10632;51.276;7.116;2022-08-25T06:15:11;21.90;99.90
20946;DHT22;10632;51.276;7.116;2022-08-25T06:17:38;22.00;99.90
20946;DHT22;10632;51.276;7.116;2022-08-25T06:20:09;22.10;99.90
20946;DHT22;10632;51.276;7.116;2022-08-25T06:22:37;22.20;99.90
20946;DHT22;10632;51.276;7.116;2022-08-25T06:25:07;22.20;99.90
20946;DHT22;10632;51.276;7.116;2022-08-25T06:27:36;22.30;99.90
20946;DHT22;10632;51.276;7.116;2022-08-25T06:30:05;22.40;99.90
20946;DHT22;10632;51.276;7.116;2022-08-25T06:32:33;22.40;99.90
20946;DHT22;10632;51.276;7.116;2022-08-25T06:35:02;22.50;99.90
20946;DHT22;10632;51.276;7.116;2022-08-25T06:37:29;22.50;99.90
20946;DHT22;10632;51.276;7.116;2022-08-25T06:39:56;22.60;99.90
20946;DHT22;10632;51.276;7.116;2022-08-25T06:42:23;22.60;99.90
20946;DHT22;10632;51.276;7.116;2022-08-25T06:44:52;22.70;99.80
20946;DHT22;10632;51.276;7.116;2022-08-25T06:47:19;22.70;99.70
20946;DHT22;10632;51.276;7.116;2022-08-25T06:49:47;22.80;99.70
20946;DHT22;10632;51.276;7.116;2022-08-25T06:52:17;22.90;99.50
20946;DHT22;10632;51.276;7.116;2022-08-25T06:54:46;23.00;99.30
20946;DHT22;10632;51.276;7.116;2022-08-25T06:57:16;23.00;99.00
20946;DHT22;10632;51.276;7.116;2022-08-25T06:59:43;23.10;99.10
20946;DHT22;10632;51.276;7.116;2022-08-25T07:02:11;23.10;99.10
20946;DHT22;10632;51.276;7.116;2022-08-25T07:04:38;23.20;99.20
20946;DHT22;10632;51.276;7.116;2022-08-25T07:07:06;23.20;99.00
20946;DHT22;10632;51.276;7.116;2022-08-25T07:09:33;23.30;98.90
20946;DHT22;10632;51.276;7.116;2022-08-25T07:12:00;23.30;99.00
20946;DHT22;10632;51.276;7.116;2022-08-25T07:14:29;23.30;98.80
20946;DHT22;10632;51.276;7.116;2022-08-25T07:16:56;23.40;98.60
20946;DHT22;10632;51.276;7.116;2022-08-25T07:19:25;23.50;98.70
20946;DHT22;10632;51.276;7.116;2022-08-25T07:21:52;23.60;98.30
20946;DHT22;10632;51.276;7.116;2022-08-25T07:24:20;23.60;98.20
20946;DHT22;10632;51.276;7.116;2022-08-25T07:26:48;23.70;98.00
20946;DHT22;10632;51.276;7.116;2022-08-25T07:29:16;23.70;98.10
20946;DHT22;10632;51.276;7.116;2022-08-25T07:31:44;23.70;98.00
20946;DHT22;10632;51.276;7.116;2022-08-25T07:34:14;23.80;97.80
20946;DHT22;10632;51.276;7.116;2022-08-25T07:37:00;23.90;97.70
20946;DHT22;10632;51.276;7.116;2022-08-25T07:39:29;23.90;97.70
20946;DHT22;10632;51.276;7.116;2022-08-25T07:41:57;24.00;98.10
20946;DHT22;10632;51.276;7.116;2022-08-25T07:44:25;24.00;97.80
20946;DHT22;10632;51.276;7.116;2022-08-25T07:49:26;24.10;97.80
20946;DHT22;10632;51.276;7.116;2022-08-25T07:51:54;24.10;97.50
20946;DHT22;10632;51.276;7.116;2022-08-25T07:54:22;24.20;97.10
20946;DHT22;10632;51.276;7.116;2022-08-25T07:56:51;24.30;97.20
20946;DHT22;10632;51.276;7.116;2022-08-25T07:59:18;24.20;97.10
20946;DHT22;10632;51.276;7.116;2022-08-25T08:01:45;24.40;97.10
20946;DHT22;10632;51.276;7.116;2022-08-25T08:04:12;24.40;96.90
20946;DHT22;10632;51.276;7.116;2022-08-25T08:06:39;24.40;97.00
20946;DHT22;10632;51.276;7.116;2022-08-25T08:09:06;24.50;96.80
20946;DHT22;10632;51.276;7.116;2022-08-25T08:11:35;24.50;96.70
20946;DHT22;10632;51.276;7.116;2022-08-25T08:14:08;24.60;96.90
20946;DHT22;10632;51.276;7.116;2022-08-25T08:16:36;24.70;96.90
20946;DHT22;10632;51.276;7.116;2022-08-25T08:19:03;24.70;96.60
20946;DHT22;10632;51.276;7.116;2022-08-25T08:21:33;24.80;96.30
20946;DHT22;10632;51.276;7.116;2022-08-25T08:24:00;24.90;96.10
20946;DHT22;10632;51.276;7.116;2022-08-25T08:26:27;25.00;95.60
20946;DHT22;10632;51.276;7.116;2022-08-25T08:28:56;25.10;95.50
20946;DHT22;10632;51.276;7.116;2022-08-25T08:31:24;25.20;95.30
20946;DHT22;10632;51.276;7.116;2022-08-25T08:33:54;25.30;95.10
20946;DHT22;10632;51.276;7.116;2022-08-25T08:36:22;25.40;94.90
20946;DHT22;10632;51.276;7.116;2022-08-25T08:38:50;25.50;95.10
20946;DHT22;10632;51.276;7.116;2022-08-25T08:41:38;25.60;95.20
20946;DHT22;10632;51.276;7.116;2022-08-25T08:44:31;25.70;95.40
20946;DHT22;10632;51.276;7.116;2022-08-25T08:47:05;25.70;95.50
20946;DHT22;10632;51.276;7.116;2022-08-25T08:49:42;25.80;95.30
20946;DHT22;10632;51.276;7.116;2022-08-25T08:52:18;25.80;95.10
20946;DHT22;10632;51.276;7.116;2022-08-25T08:54:59;26.00;94.60
20946;DHT22;10632;51.276;7.116;2022-08-25T08:57:29;26.10;94.30
20946;DHT22;10632;51.276;7.116;2022-08-25T09:00:00;26.10;94.50
20946;DHT22;10632;51.276;7.116;2022-08-25T09:02:32;26.10;94.40
20946;DHT22;10632;51.276;7.116;2022-08-25T09:05:03;26.20;94.70
20946;DHT22;10632;51.276;7.116;2022-08-25T09:07:44;26.20;94.60
20946;DHT22;10632;51.276;7.116;2022-08-25T09:10:13;26.30;94.20
20946;DHT22;10632;51.276;7.116;2022-08-25T09:12:43;26.40;94.10
20946;DHT22;10632;51.276;7.116;2022-08-25T09:15:19;26.60;93.60
20946;DHT22;10632;51.276;7.116;2022-08-25T09:18:04;26.60;93.80
20946;DHT22;10632;51.276;7.116;2022-08-25T09:20:51;26.70;93.20
20946;DHT22;10632;51.276;7.116;2022-08-25T09:23:31;26.80;92.90
20946;DHT22;10632;51.276;7.116;2022-08-25T09:26:06;26.90;93.10
20946;DHT22;10632;51.276;7.116;2022-08-25T09:28:41;27.00;93.00
20946;DHT22;10632;51.276;7.116;2022-08-25T09:31:19;27.10;93.00
20946;DHT22;10632;51.276;7.116;2022-08-25T09:33:47;27.20;92.80
20946;DHT22;10632;51.276;7.116;2022-08-25T09:36:14;27.30;92.40
20946;DHT22;10632;51.276;7.116;2022-08-25T09:38:41;27.30;92.80
20946;DHT22;10632;51.276;7.116;2022-08-25T09:41:08;27.40;92.50
20946;DHT22;10632;51.276;7.116;2022-08-25T09:43:40;27.40;92.30
20946;DHT22;10632;51.276;7.116;2022-08-25T09:46:14;27.50;91.90
20946;DHT22;10632;51.276;7.116;2022-08-25T09:48:45;27.60;91.60
20946;DHT22;10632;51.276;7.116;2022-08-25T09:51:20;27.70;91.90
20946;DHT22;10632;51.276;7.116;2022-08-25T09:53:53;27.70;92.00
20946;DHT22;10632;51.276;7.116;2022-08-25T09:56:22;27.70;91.80
20946;DHT22;10632;51.276;7.116;2022-08-25T09:58:50;27.80;91.80
20946;DHT22;10632;51.276;7.116;2022-08-25T10:01:21;27.90;91.70
20946;DHT22;10632;51.276;7.116;2022-08-25T10:04:01;28.00;91.30
20946;DHT22;10632;51.276;7.116;2022-08-25T10:06:35;28.10;91.30
20946;DHT22;10632;51.276;7.116;2022-08-25T10:09:05;28.10;91.40
20946;DHT22;10632;51.276;7.116;2022-08-25T10:11:37;28.10;91.20
20946;DHT22;10632;51.276;7.116;2022-08-25T10:14:21;28.20;91.30
20946;DHT22;10632;51.276;7.116;2022-08-25T10:17:11;28.40;90.80
20946;DHT22;10632;51.276;7.116;2022-08-25T10:19:38;28.60;90.20
20946;DHT22;10632;51.276;7.116;2022-08-25T10:22:08;28.90;89.50
20946;DHT22;10632;51.276;7.116;2022-08-25T10:24:36;29.00;89.60
20946;DHT22;10632;51.276;7.116;2022-08-25T10:27:10;29.10;88.20
20946;DHT22;10632;51.276;7.116;2022-08-25T10:30:02;29.20;88.70
20946;DHT22;10632;51.276;7.116;2022-08-25T10:32:39;29.40;87.30
20946;DHT22;10632;51.276;7.116;2022-08-25T10:35:13;29.40;87.20
20946;DHT22;10632;51.276;7.116;2022-08-25T10:37:47;29.50;87.20
20946;DHT22;10632;51.276;7.116;2022-08-25T10:40:21;29.50;86.00
20946;DHT22;10632;51.276;7.116;2022-08-25T10:43:00;29.60;85.70
20946;DHT22;10632;51.276;7.116;2022-08-25T10:45:35;29.80;84.80
20946;DHT22;10632;51.276;7.116;2022-08-25T10:48:45;30.20;81.70
20946;DHT22;10632;51.276;7.116;2022-08-25T10:51:31;30.50;80.10
20946;DHT22;10632;51.276;7.116;2022-08-25T10:54:05;30.60;81.70
20946;DHT22;10632;51.276;7.116;2022-08-25T10:56:35;30.80;82.20
20946;DHT22;10632;51.276;7.116;2022-08-25T10:59:23;30.90;82.20
20946;DHT22;10632;51.276;7.116;2022-08-25T11:02:11;30.80;82.10
20946;DHT22;10632;51.276;7.116;2022-08-25T11:04:54;30.70;82.10
20946;DHT22;10632;51.276;7.116;2022-08-25T11:07:29;30.50;82.20
20946;DHT22;10632;51.276;7.116;2022-08-25T11:10:02;30.50;81.60
20946;DHT22;10632;51.276;7.116;2022-08-25T11:12:33;30.60;82.00
20946;DHT22;10632;51.276;7.116;2022-08-25T11:15:06;30.80;81.20
20946;DHT22;10632;51.276;7.116;2022-08-25T11:17:40;31.00;78.60
20946;DHT22;10632;51.276;7.116;2022-08-25T11:20:13;31.20;77.40
20946;DHT22;10632;51.276;7.116;2022-08-25T11:22:45;31.30;76.30
20946;DHT22;10632;51.276;7.116;2022-08-25T11:25:17;31.30;77.80
20946;DHT22;10632;51.276;7.116;2022-08-25T11:27:48;31.40;78.00
20946;DHT22;10632;51.276;7.116;2022-08-25T11:30:18;31.50;77.70
20946;DHT22;10632;51.276;7.116;2022-08-25T11:32:47;31.50;77.90
20946;DHT22;10632;51.276;7.116;2022-08-25T11:35:18;31.60;75.70
20946;DHT22;10632;51.276;7.116;2022-08-25T11:38:00;31.40;75.40
20946;DHT22;10632;51.276;7.116;2022-08-25T11:40:50;31.40;76.60
20946;DHT22;10632;51.276;7.116;2022-08-25T11:43:42;31.60;76.10
20946;DHT22;10632;51.276;7.116;2022-08-25T11:46:34;31.70;75.70
20946;DHT22;10632;51.276;7.116;2022-08-25T11:49:21;31.60;75.90
20946;DHT22;10632;51.276;7.116;2022-08-25T11:51:53;31.70;75.80
20946;DHT22;10632;51.276;7.116;2022-08-25T11:54:22;31.70;75.60
20946;DHT22;10632;51.276;7.116;2022-08-25T11:56:55;31.70;74.40
20946;DHT22;10632;51.276;7.116;2022-08-25T12:02:30;31.60;73.50
20946;DHT22;10632;51.276;7.116;2022-08-25T12:04:58;31.50;72.90
20946;DHT22;10632;51.276;7.116;2022-08-25T12:07:28;31.50;72.80
20946;DHT22;10632;51.276;7.116;2022-08-25T12:10:22;31.50;73.20
20946;DHT22;10632;51.276;7.116;2022-08-25T12:12:58;31.60;72.50
20946;DHT22;10632;51.276;7.116;2022-08-25T12:18:42;31.90;71.40
20946;DHT22;10632;51.276;7.116;2022-08-25T12:21:27;32.00;72.10
20946;DHT22;10632;51.276;7.116;2022-08-25T12:24:12;32.10;72.40
20946;DHT22;10632;51.276;7.116;2022-08-25T12:26:51;32.30;72.10
20946;DHT22;10632;51.276;7.116;2022-08-25T12:29:27;32.30;71.30
20946;DHT22;10632;51.276;7.116;2022-08-25T12:32:22;32.40;72.20
20946;DHT22;10632;51.276;7.116;2022-08-25T12:35:09;32.80;71.80
20946;DHT22;10632;51.276;7.116;2022-08-25T12:37:54;33.00;70.80
20946;DHT22;10632;51.276;7.116;2022-08-25T12:40:26;33.00;70.20
20946;DHT22;10632;51.276;7.116;2022-08-25T12:43:08;32.90;71.40
20946;DHT22;10632;51.276;7.116;2022-08-25T12:45:39;32.80;71.80
20946;DHT22;10632;51.276;7.116;2022-08-25T12:51:05;32.60;71.60
20946;DHT22;10632;51.276;7.116;2022-08-25T12:53:35;32.70;72.20
20946;DHT22;10632;51.276;7.116;2022-08-25T12:56:08;32.80;71.70
20946;DHT22;10632;51.276;7.116;2022-08-25T12:58:47;32.80;71.20
20946;DHT22;10632;51.276;7.116;2022-08-25T13:01:22;32.90;70.10
20946;DHT22;10632;51.276;7.116;2022-08-25T13:04:09;32.90;69.80
20946;DHT22;10632;51.276;7.116;2022-08-25T13:07:04;32.90;69.70
20946;DHT22;10632;51.276;7.116;2022-08-25T13:10:01;32.90;69.90
20946;DHT22;10632;51.276;7.116;2022-08-25T13:12:34;33.00;68.20
20946;DHT22;10632;51.276;7.116;2022-08-25T13:15:04;33.00;68.20
20946;DHT22;10632;51.276;7.116;2022-08-25T13:17:33;33.00;68.40
20946;DHT22;10632;51.276;7.116;2022-08-25T13:20:11;32.90;68.10
20946;DHT22;10632;51.276;7.116;2022-08-25T13:22:38;32.80;68.20
20946;DHT22;10632;51.276;7.116;2022-08-25T13:25:06;32.80;68.50
20946;DHT22;10632;51.276;7.116;2022-08-25T13:27:35;32.80;67.70
20946;DHT22;10632;51.276;7.116;2022-08-25T13:30:03;32.70;67.60
20946;DHT22;10632;51.276;7.116;2022-08-25T13:32:32;32.60;68.00
20946;DHT22;10632;51.276;7.116;2022-08-25T13:35:11;32.60;66.70
20946;DHT22;10632;51.276;7.116;2022-08-25T13:37:40;32.50;67.00
20946;DHT22;10632;51.276;7.116;2022-08-25T13:40:11;32.30;67.40
20946;DHT22;10632;51.276;7.116;2022-08-25T13:42:44;32.20;67.50
20946;DHT22;10632;51.276;7.116;2022-08-25T13:45:14;32.20;66.90
20946;DHT22;10632;51.276;7.116;2022-08-25T13:47:43;32.20;67.30
20946;DHT22;10632;51.276;7.116;2022-08-25T13:50:16;32.30;67.10
20946;DHT22;10632;51.276;7.116;2022-08-25T13:52:47;32.20;66.90
20946;DHT22;10632;51.276;7.116;2022-08-25T13:55:19;32.10;67.20
20946;DHT22;10632;51.276;7.116;2022-08-25T13:57:47;31.90;67.20
20946;DHT22;10632;51.276;7.116;2022-08-25T14:00:26;31.70;67.40
20946;DHT22;10632;51.276;7.116;2022-08-25T14:02:53;31.50;67.80
20946;DHT22;10632;51.276;7.116;2022-08-25T14:05:35;31.40;67.80
20946;DHT22;10632;51.276;7.116;2022-08-25T14:08:04;31.40;68.20
20946;DHT22;10632;51.276;7.116;2022-08-25T14:10:38;31.30;68.10
20946;DHT22;10632;51.276;7.116;2022-08-25T14:13:15;31.30;68.80
20946;DHT22;10632;51.276;7.116;2022-08-25T14:15:50;31.30;68.80
20946;DHT22;10632;51.276;7.116;2022-08-25T14:18:19;31.20;68.60
20946;DHT22;10632;51.276;7.116;2022-08-25T14:20:49;31.30;68.90
20946;DHT22;10632;51.276;7.116;2022-08-25T14:23:20;31.40;68.90
20946;DHT22;10632;51.276;7.116;2022-08-25T14:25:49;31.40;68.90
20946;DHT22;10632;51.276;7.116;2022-08-25T14:28:20;31.40;68.50
20946;DHT22;10632;51.276;7.116;2022-08-25T14:30:49;31.30;68.80
20946;DHT22;10632;51.276;7.116;2022-08-25T14:33:19;31.20;67.70
20946;DHT22;10632;51.276;7.116;2022-08-25T14:35:49;31.10;68.60
20946;DHT22;10632;51.276;7.116;2022-08-25T14:38:18;31.00;69.10
20946;DHT22;10632;51.276;7.116;2022-08-25T14:40:45;30.90;69.40
20946;DHT22;10632;51.276;7.116;2022-08-25T14:43:13;30.80;69.40
20946;DHT22;10632;51.276;7.116;2022-08-25T14:45:44;30.70;69.10
20946;DHT22;10632;51.276;7.116;2022-08-25T14:48:15;30.50;69.20
20946;DHT22;10632;51.276;7.116;2022-08-25T14:50:44;30.50;69.40
20946;DHT22;10632;51.276;7.116;2022-08-25T14:53:11;30.30;69.70
20946;DHT22;10632;51.276;7.116;2022-08-25T14:55:38;30.30;70.10
20946;DHT22;10632;51.276;7.116;2022-08-25T14:58:05;30.20;70.80
20946;DHT22;10632;51.276;7.116;2022-08-25T15:00:32;30.10;70.20
20946;DHT22;10632;51.276;7.116;2022-08-25T15:03:01;30.10;69.90
20946;DHT22;10632;51.276;7.116;2022-08-25T15:05:28;30.00;70.50
20946;DHT22;10632;51.276;7.116;2022-08-25T15:07:56;30.00;70.70
20946;DHT22;10632;51.276;7.116;2022-08-25T15:10:41;30.00;70.70
20946;DHT22;10632;51.276;7.116;2022-08-25T15:13:08;29.90;71.30
20946;DHT22;10632;51.276;7.116;2022-08-25T15:15:39;29.80;72.00
20946;DHT22;10632;51.276;7.116;2022-08-25T15:18:10;29.80;72.70
20946;DHT22;10632;51.276;7.116;2022-08-25T15:20:37;29.80;73.10
20946;DHT22;10632;51.276;7.116;2022-08-25T15:23:04;29.80;72.10
20946;DHT22;10632;51.276;7.116;2022-08-25T15:25:30;29.80;70.20
20946;DHT22;10632;51.276;7.116;2022-08-25T15:28:06;30.00;69.50
20946;DHT22;10632;51.276;7.116;2022-08-25T15:30:33;30.00;68.90
20946;DHT22;10632;51.276;7.116;2022-08-25T15:33:01;30.10;69.00
20946;DHT22;10632;51.276;7.116;2022-08-25T15:35:29;30.10;69.20
20946;DHT22;10632;51.276;7.116;2022-08-25T15:37:59;30.20;69.50
20946;DHT22;10632;51.276;7.116;2022-08-25T15:40:29;30.30;68.60
20946;DHT22;10632;51.276;7.116;2022-08-25T15:42:56;30.30;68.70
20946;DHT22;10632;51.276;7.116;2022-08-25T15:45:23;30.30;67.90
20946;DHT22;10632;51.276;7.116;2022-08-25T15:47:50;30.40;67.90
20946;DHT22;10632;51.276;7.116;2022-08-25T15:50:22;30.40;68.20
20946;DHT22;10632;51.276;7.116;2022-08-25T15:52:52;30.50;68.60
20946;DHT22;10632;51.276;7.116;2022-08-25T15:55:19;30.50;68.00
20946;DHT22;10632;51.276;7.116;2022-08-25T15:57:46;30.50;67.60
20946;DHT22;10632;51.276;7.116;2022-08-25T16:00:14;30.60;68.60
20946;DHT22;10632;51.276;7.116;2022-08-25T16:02:41;30.50;68.10
20946;DHT22;10632;51.276;7.116;2022-08-25T16:05:09;30.50;68.10
20946;DHT22;10632;51.276;7.116;2022-08-25T16:07:36;30.50;67.30